sensor_id;sensor_type;location;lat;lon;timestamp;P1;durP1;ratioP1;P2;durP2;ratioP2
43114;SDS011;28727;50.068;14.452;2022-07-23T00:02:21;440.20;;;332.50;;
43114;SDS011;28727;50.068;14.452;2022-07-23T00:04:53;439.57;;;335.60;;
43114;SDS011;28727;50.068;14.452;2022-07-23T00:07:25;440.80;;;335.60;;
43114;SDS011;28727;50.068;14.452;2022-07-23T00:09:57;440.63;;;340.17;;
43114;SDS011;28727;50.068;14.452;2022-07-23T00:12:30;436.13;;;325.47;;
43114;SDS011;28727;50.068;14.452;2022-07-23T00:15:02;437.87;;;335.27;;
43114;SDS011;28727;50.068;14.452;2022-07-23T00:17:39;437.50;;;328.30;;
43114;SDS011;28727;50.068;14.452;2022-07-23T00:20:10;437.20;;;331.33;;
43114;SDS011;28727;50.068;14.452;2022-07-23T00:22:49;439.60;;;335.70;;
43114;SDS011;28727;50.068;14.452;2022-07-23T00:25:22;437.93;;;325.97;;
43114;SDS011;28727;50.068;14.452;2022-07-23T00:28:01;441.67;;;337.60;;
43114;SDS011;28727;50.068;14.452;2022-07-23T00:30:33;437.23;;;324.80;;
43114;SDS011;28727;50.068;14.452;2022-07-23T00:33:06;439.33;;;326.73;;
43114;SDS011;28727;50.068;14.452;2022-07-23T00:35:41;438.75;;;331.55;;
43114;SDS011;28727;50.068;14.452;2022-07-23T00:38:13;436.70;;;321.70;;
43114;SDS011;28727;50.068;14.452;2022-07-23T00:40:47;434.75;;;325.13;;
43114;SDS011;28727;50.068;14.452;2022-07-23T00:43:25;433.33;;;316.00;;
43114;SDS011;28727;50.068;14.452;2022-07-23T00:45:56;437.70;;;327.87;;
43114;SDS011;28727;50.068;14.452;2022-07-23T00:48:28;438.10;;;331.30;;
43114;SDS011;28727;50.068;14.452;2022-07-23T00:51:00;438.30;;;327.93;;
43114;SDS011;28727;50.068;14.452;2022-07-23T00:53:32;440.40;;;332.33;;
43114;SDS011;28727;50.068;14.452;2022-07-23T00:56:04;435.70;;;319.83;;
43114;SDS011;28727;50.068;14.452;2022-07-23T00:58:37;436.65;;;324.33;;
43114;SDS011;28727;50.068;14.452;2022-07-23T01:01:12;433.80;;;315.10;;
43114;SDS011;28727;50.068;14.452;2022-07-23T01:03:44;438.40;;;324.60;;
43114;SDS011;28727;50.068;14.452;2022-07-23T01:06:16;439.47;;;326.67;;
43114;SDS011;28727;50.068;14.452;2022-07-23T01:08:55;436.70;;;326.43;;
43114;SDS011;28727;50.068;14.452;2022-07-23T01:11:27;437.17;;;326.07;;
43114;SDS011;28727;50.068;14.452;2022-07-23T01:13:59;436.47;;;320.27;;
43114;SDS011;28727;50.068;14.452;2022-07-23T01:16:39;436.27;;;325.23;;
43114;SDS011;28727;50.068;14.452;2022-07-23T01:19:11;435.77;;;324.27;;
43114;SDS011;28727;50.068;14.452;2022-07-23T01:21:45;436.70;;;326.77;;
43114;SDS011;28727;50.068;14.452;2022-07-23T01:24:18;435.80;;;319.10;;
43114;SDS011;28727;50.068;14.452;2022-07-23T01:27:03;435.53;;;323.80;;
43114;SDS011;28727;50.068;14.452;2022-07-23T01:29:39;434.70;;;322.63;;
43114;SDS011;28727;50.068;14.452;2022-07-23T01:32:16;433.63;;;314.70;;
43114;SDS011;28727;50.068;14.452;2022-07-23T01:34:48;441.20;;;329.07;;
43114;SDS011;28727;50.068;14.452;2022-07-23T01:37:20;437.23;;;325.50;;
43114;SDS011;28727;50.068;14.452;2022-07-23T01:39:52;438.63;;;325.90;;
43114;SDS011;28727;50.068;14.452;2022-07-23T01:42:33;433.77;;;317.37;;
43114;SDS011;28727;50.068;14.452;2022-07-23T01:45:07;437.40;;;321.00;;
43114;SDS011;28727;50.068;14.452;2022-07-23T01:47:40;432.00;;;314.77;;
43114;SDS011;28727;50.068;14.452;2022-07-23T01:50:12;435.30;;;319.80;;
43114;SDS011;28727;50.068;14.452;2022-07-23T01:53:06;437.20;;;317.23;;
43114;SDS011;28727;50.068;14.452;2022-07-23T01:55:43;437.57;;;320.63;;
43114;SDS011;28727;50.068;14.452;2022-07-23T01:58:16;436.03;;;322.80;;
43114;SDS011;28727;50.068;14.452;2022-07-23T02:00:55;432.90;;;313.77;;
43114;SDS011;28727;50.068;14.452;2022-07-23T02:03:28;431.93;;;309.83;;
43114;SDS011;28727;50.068;14.452;2022-07-23T02:06:00;435.63;;;319.43;;
43114;SDS011;28727;50.068;14.452;2022-07-23T02:08:33;436.97;;;324.47;;
43114;SDS011;28727;50.068;14.452;2022-07-23T02:11:05;437.20;;;322.77;;
43114;SDS011;28727;50.068;14.452;2022-07-23T02:13:40;437.87;;;321.23;;
43114;SDS011;28727;50.068;14.452;2022-07-23T02:16:15;434.37;;;318.73;;
43114;SDS011;28727;50.068;14.452;2022-07-23T02:18:47;432.93;;;311.80;;
43114;SDS011;28727;50.068;14.452;2022-07-23T02:21:19;434.67;;;312.67;;
43114;SDS011;28727;50.068;14.452;2022-07-23T02:23:54;435.53;;;315.37;;
43114;SDS011;28727;50.068;14.452;2022-07-23T02:26:26;437.33;;;321.93;;
43114;SDS011;28727;50.068;14.452;2022-07-23T02:29:02;435.60;;;313.27;;
43114;SDS011;28727;50.068;14.452;2022-07-23T02:31:38;434.23;;;315.80;;
43114;SDS011;28727;50.068;14.452;2022-07-23T02:34:13;433.03;;;317.20;;
43114;SDS011;28727;50.068;14.452;2022-07-23T02:39:19;436.37;;;318.63;;
43114;SDS011;28727;50.068;14.452;2022-07-23T02:41:51;435.93;;;321.93;;
43114;SDS011;28727;50.068;14.452;2022-07-23T02:44:22;434.27;;;317.43;;
43114;SDS011;28727;50.068;14.452;2022-07-23T02:49:28;434.27;;;312.30;;
43114;SDS011;28727;50.068;14.452;2022-07-23T02:52:01;434.10;;;313.53;;
43114;SDS011;28727;50.068;14.452;2022-07-23T02:54:36;431.53;;;310.03;;
43114;SDS011;28727;50.068;14.452;2022-07-23T02:57:09;434.50;;;317.57;;
43114;SDS011;28727;50.068;14.452;2022-07-23T02:59:43;433.93;;;317.50;;
43114;SDS011;28727;50.068;14.452;2022-07-23T03:02:15;435.53;;;316.03;;
43114;SDS011;28727;50.068;14.452;2022-07-23T03:04:47;301.67;;;237.63;;
43114;SDS011;28727;50.068;14.452;2022-07-23T03:07:18;434.13;;;315.83;;
43114;SDS011;28727;50.068;14.452;2022-07-23T03:09:50;433.87;;;312.10;;
43114;SDS011;28727;50.068;14.452;2022-07-23T03:12:22;432.37;;;311.23;;
43114;SDS011;28727;50.068;14.452;2022-07-23T03:14:54;434.00;;;310.73;;
43114;SDS011;28727;50.068;14.452;2022-07-23T03:17:26;436.33;;;316.60;;
43114;SDS011;28727;50.068;14.452;2022-07-23T03:19:57;433.83;;;315.07;;
43114;SDS011;28727;50.068;14.452;2022-07-23T03:22:29;436.77;;;317.73;;
43114;SDS011;28727;50.068;14.452;2022-07-23T03:25:01;434.63;;;311.80;;
43114;SDS011;28727;50.068;14.452;2022-07-23T03:27:40;434.10;;;313.90;;
43114;SDS011;28727;50.068;14.452;2022-07-23T03:30:13;436.27;;;317.47;;
43114;SDS011;28727;50.068;14.452;2022-07-23T03:32:47;431.50;;;309.50;;
43114;SDS011;28727;50.068;14.452;2022-07-23T03:35:19;433.93;;;312.93;;
43114;SDS011;28727;50.068;14.452;2022-07-23T03:38:10;437.70;;;320.43;;
43114;SDS011;28727;50.068;14.452;2022-07-23T03:40:44;430.23;;;301.85;;
43114;SDS011;28727;50.068;14.452;2022-07-23T03:43:21;432.57;;;307.87;;
43114;SDS011;28727;50.068;14.452;2022-07-23T03:48:30;433.52;;;308.83;;
43114;SDS011;28727;50.068;14.452;2022-07-23T03:51:03;433.70;;;311.33;;
43114;SDS011;28727;50.068;14.452;2022-07-23T03:56:14;431.83;;;307.20;;
43114;SDS011;28727;50.068;14.452;2022-07-23T03:58:48;433.57;;;311.63;;
43114;SDS011;28727;50.068;14.452;2022-07-23T04:01:20;435.13;;;314.57;;
43114;SDS011;28727;50.068;14.452;2022-07-23T04:03:52;431.67;;;305.93;;
43114;SDS011;28727;50.068;14.452;2022-07-23T04:06:27;431.57;;;304.13;;
43114;SDS011;28727;50.068;14.452;2022-07-23T04:09:03;433.00;;;309.37;;
43114;SDS011;28727;50.068;14.452;2022-07-23T04:11:37;431.50;;;306.67;;
43114;SDS011;28727;50.068;14.452;2022-07-23T04:14:09;437.30;;;315.37;;
43114;SDS011;28727;50.068;14.452;2022-07-23T04:16:41;432.13;;;306.10;;
43114;SDS011;28727;50.068;14.452;2022-07-23T04:19:17;433.67;;;309.77;;
43114;SDS011;28727;50.068;14.452;2022-07-23T04:22:05;431.90;;;307.30;;
43114;SDS011;28727;50.068;14.452;2022-07-23T04:24:40;434.87;;;314.53;;
43114;SDS011;28727;50.068;14.452;2022-07-23T04:27:31;434.50;;;310.47;;
43114;SDS011;28727;50.068;14.452;2022-07-23T04:30:04;432.10;;;308.53;;
43114;SDS011;28727;50.068;14.452;2022-07-23T04:32:37;433.80;;;307.67;;
43114;SDS011;28727;50.068;14.452;2022-07-23T04:35:16;432.33;;;308.13;;
43114;SDS011;28727;50.068;14.452;2022-07-23T04:37:55;433.07;;;303.30;;
43114;SDS011;28727;50.068;14.452;2022-07-23T04:40:29;434.15;;;314.63;;
43114;SDS011;28727;50.068;14.452;2022-07-23T04:43:01;432.17;;;306.93;;
43114;SDS011;28727;50.068;14.452;2022-07-23T04:45:33;431.80;;;302.23;;
43114;SDS011;28727;50.068;14.452;2022-07-23T04:48:09;434.73;;;310.33;;
43114;SDS011;28727;50.068;14.452;2022-07-23T04:50:41;432.07;;;304.67;;
43114;SDS011;28727;50.068;14.452;2022-07-23T04:53:21;434.37;;;308.73;;
43114;SDS011;28727;50.068;14.452;2022-07-23T04:55:55;313.70;;;247.65;;
43114;SDS011;28727;50.068;14.452;2022-07-23T04:58:38;431.83;;;302.70;;
43114;SDS011;28727;50.068;14.452;2022-07-23T05:01:13;432.00;;;302.27;;
43114;SDS011;28727;50.068;14.452;2022-07-23T05:03:45;431.23;;;301.33;;
43114;SDS011;28727;50.068;14.452;2022-07-23T05:06:17;432.20;;;307.53;;
43114;SDS011;28727;50.068;14.452;2022-07-23T05:08:49;433.23;;;305.57;;
43114;SDS011;28727;50.068;14.452;2022-07-23T05:11:28;433.10;;;309.07;;
43114;SDS011;28727;50.068;14.452;2022-07-23T05:13:59;430.73;;;304.10;;
43114;SDS011;28727;50.068;14.452;2022-07-23T05:16:32;432.63;;;304.47;;
43114;SDS011;28727;50.068;14.452;2022-07-23T05:19:10;429.57;;;299.20;;
43114;SDS011;28727;50.068;14.452;2022-07-23T05:21:45;433.23;;;301.77;;
43114;SDS011;28727;50.068;14.452;2022-07-23T05:24:19;431.33;;;296.85;;
43114;SDS011;28727;50.068;14.452;2022-07-23T05:26:52;431.13;;;301.10;;
43114;SDS011;28727;50.068;14.452;2022-07-23T05:29:26;313.77;;;237.65;;
43114;SDS011;28727;50.068;14.452;2022-07-23T05:32:00;429.97;;;299.50;;
43114;SDS011;28727;50.068;14.452;2022-07-23T05:34:34;432.50;;;305.55;;
43114;SDS011;28727;50.068;14.452;2022-07-23T05:37:06;431.67;;;308.60;;
43114;SDS011;28727;50.068;14.452;2022-07-23T05:39:37;430.70;;;299.67;;
43114;SDS011;28727;50.068;14.452;2022-07-23T05:42:10;441.50;;;319.07;;
43114;SDS011;28727;50.068;14.452;2022-07-23T05:44:41;430.57;;;302.67;;
43114;SDS011;28727;50.068;14.452;2022-07-23T05:47:23;429.20;;;296.50;;
43114;SDS011;28727;50.068;14.452;2022-07-23T05:49:55;433.43;;;306.17;;
43114;SDS011;28727;50.068;14.452;2022-07-23T05:52:58;432.10;;;305.60;;
43114;SDS011;28727;50.068;14.452;2022-07-23T05:55:47;432.07;;;305.37;;
43114;SDS011;28727;50.068;14.452;2022-07-23T05:58:21;431.40;;;304.40;;
43114;SDS011;28727;50.068;14.452;2022-07-23T06:00:56;432.10;;;301.97;;
43114;SDS011;28727;50.068;14.452;2022-07-23T06:03:28;432.87;;;305.47;;
43114;SDS011;28727;50.068;14.452;2022-07-23T06:06:00;432.90;;;304.37;;
43114;SDS011;28727;50.068;14.452;2022-07-23T06:08:40;430.43;;;306.40;;
43114;SDS011;28727;50.068;14.452;2022-07-23T06:11:15;432.27;;;307.30;;
43114;SDS011;28727;50.068;14.452;2022-07-23T06:13:47;433.10;;;304.57;;
43114;SDS011;28727;50.068;14.452;2022-07-23T06:16:19;429.43;;;302.07;;
43114;SDS011;28727;50.068;14.452;2022-07-23T06:18:51;433.27;;;306.03;;
43114;SDS011;28727;50.068;14.452;2022-07-23T06:21:24;431.27;;;303.23;;
43114;SDS011;28727;50.068;14.452;2022-07-23T06:24:19;428.63;;;297.97;;
43114;SDS011;28727;50.068;14.452;2022-07-23T06:26:53;429.70;;;305.58;;
43114;SDS011;28727;50.068;14.452;2022-07-23T06:29:27;434.50;;;310.27;;
43114;SDS011;28727;50.068;14.452;2022-07-23T06:31:59;433.00;;;310.33;;
43114;SDS011;28727;50.068;14.452;2022-07-23T06:34:32;432.93;;;308.53;;
43114;SDS011;28727;50.068;14.452;2022-07-23T06:37:06;435.03;;;313.13;;
43114;SDS011;28727;50.068;14.452;2022-07-23T06:39:42;433.90;;;308.87;;
43114;SDS011;28727;50.068;14.452;2022-07-23T06:42:14;433.13;;;311.13;;
43114;SDS011;28727;50.068;14.452;2022-07-23T06:47:23;429.63;;;299.73;;
43114;SDS011;28727;50.068;14.452;2022-07-23T06:49:59;433.93;;;311.80;;
43114;SDS011;28727;50.068;14.452;2022-07-23T06:52:34;433.27;;;308.87;;
43114;SDS011;28727;50.068;14.452;2022-07-23T06:55:15;434.30;;;312.03;;
43114;SDS011;28727;50.068;14.452;2022-07-23T06:57:49;433.33;;;312.97;;
43114;SDS011;28727;50.068;14.452;2022-07-23T07:00:20;432.80;;;314.03;;
43114;SDS011;28727;50.068;14.452;2022-07-23T07:02:53;431.27;;;304.10;;
43114;SDS011;28727;50.068;14.452;2022-07-23T07:05:25;432.20;;;309.33;;
43114;SDS011;28727;50.068;14.452;2022-07-23T07:07:58;433.57;;;312.60;;
43114;SDS011;28727;50.068;14.452;2022-07-23T07:10:35;432.90;;;311.80;;
43114;SDS011;28727;50.068;14.452;2022-07-23T07:13:07;435.17;;;307.47;;
43114;SDS011;28727;50.068;14.452;2022-07-23T07:15:39;436.67;;;314.60;;
43114;SDS011;28727;50.068;14.452;2022-07-23T07:18:21;326.17;;;255.23;;
43114;SDS011;28727;50.068;14.452;2022-07-23T07:20:53;432.00;;;308.07;;
43114;SDS011;28727;50.068;14.452;2022-07-23T07:23:27;434.00;;;311.52;;
43114;SDS011;28727;50.068;14.452;2022-07-23T07:26:01;437.63;;;320.00;;
43114;SDS011;28727;50.068;14.452;2022-07-23T07:28:33;326.00;;;252.63;;
43114;SDS011;28727;50.068;14.452;2022-07-23T07:31:05;432.13;;;309.27;;
43114;SDS011;28727;50.068;14.452;2022-07-23T07:33:36;431.23;;;306.97;;
43114;SDS011;28727;50.068;14.452;2022-07-23T07:36:08;439.23;;;322.83;;
43114;SDS011;28727;50.068;14.452;2022-07-23T07:38:40;434.37;;;311.33;;
43114;SDS011;28727;50.068;14.452;2022-07-23T07:41:13;434.30;;;309.30;;
43114;SDS011;28727;50.068;14.452;2022-07-23T07:43:45;435.87;;;312.23;;
43114;SDS011;28727;50.068;14.452;2022-07-23T07:46:16;433.70;;;313.30;;
43114;SDS011;28727;50.068;14.452;2022-07-23T07:48:50;433.13;;;310.60;;
43114;SDS011;28727;50.068;14.452;2022-07-23T07:51:28;436.73;;;320.90;;
43114;SDS011;28727;50.068;14.452;2022-07-23T07:54:00;437.60;;;324.13;;
43114;SDS011;28727;50.068;14.452;2022-07-23T07:56:38;326.93;;;258.57;;
43114;SDS011;28727;50.068;14.452;2022-07-23T07:59:14;437.37;;;323.67;;
43114;SDS011;28727;50.068;14.452;2022-07-23T08:01:46;434.43;;;314.37;;
43114;SDS011;28727;50.068;14.452;2022-07-23T08:04:18;316.27;;;256.53;;
43114;SDS011;28727;50.068;14.452;2022-07-23T08:06:50;436.70;;;322.40;;
43114;SDS011;28727;50.068;14.452;2022-07-23T08:09:24;435.42;;;317.27;;
43114;SDS011;28727;50.068;14.452;2022-07-23T08:11:56;327.57;;;260.60;;
43114;SDS011;28727;50.068;14.452;2022-07-23T08:14:28;439.40;;;328.37;;
43114;SDS011;28727;50.068;14.452;2022-07-23T08:17:00;441.23;;;330.50;;
43114;SDS011;28727;50.068;14.452;2022-07-23T08:22:21;439.23;;;326.53;;
43114;SDS011;28727;50.068;14.452;2022-07-23T08:24:53;439.50;;;327.33;;
43114;SDS011;28727;50.068;14.452;2022-07-23T08:27:24;441.47;;;336.43;;
43114;SDS011;28727;50.068;14.452;2022-07-23T08:29:56;76.93;;;52.63;;
43114;SDS011;28727;50.068;14.452;2022-07-23T08:32:31;9.90;;;8.52;;
43114;SDS011;28727;50.068;14.452;2022-07-23T08:35:16;11.32;;;9.85;;
43114;SDS011;28727;50.068;14.452;2022-07-23T08:37:49;13.90;;;9.10;;
43114;SDS011;28727;50.068;14.452;2022-07-23T08:40:20;14.07;;;9.57;;
43114;SDS011;28727;50.068;14.452;2022-07-23T08:42:53;10.27;;;8.75;;
43114;SDS011;28727;50.068;14.452;2022-07-23T08:45:25;9.55;;;8.50;;
43114;SDS011;28727;50.068;14.452;2022-07-23T08:47:58;10.30;;;9.10;;
43114;SDS011;28727;50.068;14.452;2022-07-23T08:50:34;11.43;;;9.15;;
43114;SDS011;28727;50.068;14.452;2022-07-23T08:53:11;9.77;;;8.00;;
43114;SDS011;28727;50.068;14.452;2022-07-23T08:55:44;10.40;;;8.52;;
43114;SDS011;28727;50.068;14.452;2022-07-23T08:58:17;12.25;;;9.75;;
43114;SDS011;28727;50.068;14.452;2022-07-23T09:00:49;470.03;;;418.87;;
43114;SDS011;28727;50.068;14.452;2022-07-23T09:03:22;453.10;;;400.40;;
43114;SDS011;28727;50.068;14.452;2022-07-23T09:05:57;452.30;;;392.00;;
43114;SDS011;28727;50.068;14.452;2022-07-23T09:08:34;456.93;;;401.73;;
43114;SDS011;28727;50.068;14.452;2022-07-23T09:11:09;454.00;;;400.43;;
43114;SDS011;28727;50.068;14.452;2022-07-23T09:16:26;457.63;;;399.13;;
43114;SDS011;28727;50.068;14.452;2022-07-23T09:19:02;452.67;;;393.50;;
43114;SDS011;28727;50.068;14.452;2022-07-23T09:21:37;454.27;;;398.80;;
43114;SDS011;28727;50.068;14.452;2022-07-23T09:24:10;453.85;;;395.50;;
43114;SDS011;28727;50.068;14.452;2022-07-23T09:26:47;454.67;;;404.10;;
43114;SDS011;28727;50.068;14.452;2022-07-23T09:29:22;466.98;;;416.23;;
43114;SDS011;28727;50.068;14.452;2022-07-23T09:31:59;477.17;;;426.03;;
43114;SDS011;28727;50.068;14.452;2022-07-23T09:34:36;471.10;;;420.13;;
43114;SDS011;28727;50.068;14.452;2022-07-23T09:37:18;466.73;;;416.03;;
43114;SDS011;28727;50.068;14.452;2022-07-23T09:39:51;470.17;;;419.33;;
43114;SDS011;28727;50.068;14.452;2022-07-23T09:42:36;466.80;;;415.47;;
43114;SDS011;28727;50.068;14.452;2022-07-23T09:45:11;472.40;;;421.23;;
43114;SDS011;28727;50.068;14.452;2022-07-23T09:47:46;469.97;;;418.97;;
43114;SDS011;28727;50.068;14.452;2022-07-23T09:50:19;473.53;;;422.50;;
43114;SDS011;28727;50.068;14.452;2022-07-23T09:53:03;473.33;;;422.43;;
43114;SDS011;28727;50.068;14.452;2022-07-23T09:55:35;464.63;;;413.87;;
43114;SDS011;28727;50.068;14.452;2022-07-23T09:58:12;461.83;;;411.30;;
43114;SDS011;28727;50.068;14.452;2022-07-23T10:00:46;459.90;;;409.60;;
43114;SDS011;28727;50.068;14.452;2022-07-23T10:03:22;470.50;;;419.87;;
43114;SDS011;28727;50.068;14.452;2022-07-23T10:06:17;453.73;;;403.13;;
43114;SDS011;28727;50.068;14.452;2022-07-23T10:09:07;468.30;;;417.80;;
43114;SDS011;28727;50.068;14.452;2022-07-23T10:12:05;467.00;;;416.37;;
43114;SDS011;28727;50.068;14.452;2022-07-23T10:15:05;459.23;;;408.77;;
43114;SDS011;28727;50.068;14.452;2022-07-23T10:17:42;469.33;;;418.60;;
43114;SDS011;28727;50.068;14.452;2022-07-23T10:20:13;472.27;;;421.47;;
43114;SDS011;28727;50.068;14.452;2022-07-23T10:22:59;484.10;;;433.03;;
43114;SDS011;28727;50.068;14.452;2022-07-23T10:28:41;477.45;;;426.63;;
43114;SDS011;28727;50.068;14.452;2022-07-23T10:31:25;479.65;;;428.73;;
43114;SDS011;28727;50.068;14.452;2022-07-23T10:37:28;492.73;;;441.63;;
43114;SDS011;28727;50.068;14.452;2022-07-23T10:40:18;493.42;;;442.33;;
43114;SDS011;28727;50.068;14.452;2022-07-23T10:42:52;486.23;;;435.27;;
43114;SDS011;28727;50.068;14.452;2022-07-23T10:45:33;494.50;;;443.33;;
43114;SDS011;28727;50.068;14.452;2022-07-23T10:59:30;504.67;;;453.15;;
43114;SDS011;28727;50.068;14.452;2022-07-23T11:05:01;510.48;;;458.65;;
43114;SDS011;28727;50.068;14.452;2022-07-23T11:08:09;498.52;;;447.30;;
43114;SDS011;28727;50.068;14.452;2022-07-23T11:13:39;519.55;;;467.70;;
43114;SDS011;28727;50.068;14.452;2022-07-23T11:16:21;515.05;;;463.35;;
43114;SDS011;28727;50.068;14.452;2022-07-23T11:19:03;520.38;;;468.45;;
43114;SDS011;28727;50.068;14.452;2022-07-23T11:21:40;512.97;;;461.27;;
43114;SDS011;28727;50.068;14.452;2022-07-23T11:24:14;520.95;;;469.35;;
43114;SDS011;28727;50.068;14.452;2022-07-23T11:26:58;517.20;;;465.63;;
43114;SDS011;28727;50.068;14.452;2022-07-23T11:32:27;517.88;;;466.20;;
43114;SDS011;28727;50.068;14.452;2022-07-23T11:35:00;513.35;;;462.10;;
43114;SDS011;28727;50.068;14.452;2022-07-23T11:37:36;519.33;;;467.67;;
43114;SDS011;28727;50.068;14.452;2022-07-23T11:40:14;525.63;;;473.73;;
43114;SDS011;28727;50.068;14.452;2022-07-23T11:43:00;512.00;;;460.58;;
43114;SDS011;28727;50.068;14.452;2022-07-23T11:46:19;520.10;;;468.33;;
43114;SDS011;28727;50.068;14.452;2022-07-23T11:48:32;513.75;;;462.48;;
43114;SDS011;28727;50.068;14.452;2022-07-23T11:51:10;510.50;;;459.25;;
43114;SDS011;28727;50.068;14.452;2022-07-23T11:54:04;495.48;;;444.00;;
43114;SDS011;28727;50.068;14.452;2022-07-23T11:56:54;494.33;;;443.38;;
43114;SDS011;28727;50.068;14.452;2022-07-23T11:59:51;483.95;;;432.63;;
43114;SDS011;28727;50.068;14.452;2022-07-23T12:02:26;489.40;;;438.37;;
43114;SDS011;28727;50.068;14.452;2022-07-23T12:04:59;478.57;;;428.00;;
43114;SDS011;28727;50.068;14.452;2022-07-23T12:07:32;473.10;;;422.65;;
43114;SDS011;28727;50.068;14.452;2022-07-23T12:10:23;475.10;;;424.30;;
43114;SDS011;28727;50.068;14.452;2022-07-23T12:13:05;469.07;;;418.20;;
43114;SDS011;28727;50.068;14.452;2022-07-23T12:15:51;462.17;;;411.60;;
43114;SDS011;28727;50.068;14.452;2022-07-23T12:18:27;456.50;;;406.20;;
43114;SDS011;28727;50.068;14.452;2022-07-23T12:21:03;457.67;;;407.30;;
43114;SDS011;28727;50.068;14.452;2022-07-23T12:23:38;450.92;;;396.08;;
43114;SDS011;28727;50.068;14.452;2022-07-23T12:26:10;458.10;;;407.57;;
43114;SDS011;28727;50.068;14.452;2022-07-23T12:28:43;448.20;;;386.37;;
43114;SDS011;28727;50.068;14.452;2022-07-23T12:31:26;452.40;;;393.87;;
43114;SDS011;28727;50.068;14.452;2022-07-23T12:33:59;457.07;;;401.63;;
43114;SDS011;28727;50.068;14.452;2022-07-23T12:36:37;453.70;;;395.47;;
43114;SDS011;28727;50.068;14.452;2022-07-23T12:39:28;450.43;;;385.43;;
43114;SDS011;28727;50.068;14.452;2022-07-23T12:42:11;453.90;;;391.43;;
43114;SDS011;28727;50.068;14.452;2022-07-23T12:45:02;452.17;;;389.37;;
43114;SDS011;28727;50.068;14.452;2022-07-23T12:47:51;451.97;;;391.30;;
43114;SDS011;28727;50.068;14.452;2022-07-23T12:50:47;451.37;;;383.93;;
43114;SDS011;28727;50.068;14.452;2022-07-23T12:53:25;448.97;;;381.90;;
43114;SDS011;28727;50.068;14.452;2022-07-23T12:56:09;450.10;;;382.83;;
43114;SDS011;28727;50.068;14.452;2022-07-23T13:01:26;448.60;;;379.37;;
43114;SDS011;28727;50.068;14.452;2022-07-23T13:04:11;451.80;;;385.60;;
43114;SDS011;28727;50.068;14.452;2022-07-23T13:09:31;446.83;;;372.03;;
43114;SDS011;28727;50.068;14.452;2022-07-23T13:12:12;451.23;;;380.53;;
43114;SDS011;28727;50.068;14.452;2022-07-23T13:14:46;455.77;;;383.03;;
43114;SDS011;28727;50.068;14.452;2022-07-23T13:17:18;448.07;;;375.57;;
43114;SDS011;28727;50.068;14.452;2022-07-23T13:19:51;447.07;;;379.07;;
43114;SDS011;28727;50.068;14.452;2022-07-23T13:22:24;449.17;;;385.53;;
43114;SDS011;28727;50.068;14.452;2022-07-23T13:24:55;449.60;;;381.23;;
43114;SDS011;28727;50.068;14.452;2022-07-23T13:27:27;448.17;;;379.30;;
43114;SDS011;28727;50.068;14.452;2022-07-23T13:30:00;449.33;;;382.03;;
43114;SDS011;28727;50.068;14.452;2022-07-23T13:32:33;450.33;;;386.27;;
43114;SDS011;28727;50.068;14.452;2022-07-23T13:35:07;446.65;;;379.35;;
43114;SDS011;28727;50.068;14.452;2022-07-23T13:37:41;447.57;;;372.47;;
43114;SDS011;28727;50.068;14.452;2022-07-23T13:42:48;448.10;;;382.13;;
43114;SDS011;28727;50.068;14.452;2022-07-23T13:45:20;453.00;;;399.13;;
43114;SDS011;28727;50.068;14.452;2022-07-23T13:47:58;448.00;;;386.30;;
43114;SDS011;28727;50.068;14.452;2022-07-23T13:50:30;449.30;;;388.40;;
43114;SDS011;28727;50.068;14.452;2022-07-23T13:53:26;452.10;;;393.33;;
43114;SDS011;28727;50.068;14.452;2022-07-23T13:55:57;450.40;;;395.07;;
43114;SDS011;28727;50.068;14.452;2022-07-23T13:58:29;451.13;;;392.30;;
43114;SDS011;28727;50.068;14.452;2022-07-23T14:01:20;452.67;;;402.40;;
43114;SDS011;28727;50.068;14.452;2022-07-23T14:03:52;455.87;;;399.20;;
43114;SDS011;28727;50.068;14.452;2022-07-23T14:06:24;454.23;;;403.40;;
43114;SDS011;28727;50.068;14.452;2022-07-23T14:09:03;453.45;;;395.95;;
43114;SDS011;28727;50.068;14.452;2022-07-23T14:11:38;459.73;;;408.47;;
43114;SDS011;28727;50.068;14.452;2022-07-23T14:14:10;455.97;;;405.27;;
43114;SDS011;28727;50.068;14.452;2022-07-23T14:16:42;462.87;;;411.87;;
43114;SDS011;28727;50.068;14.452;2022-07-23T14:19:14;459.40;;;406.23;;
43114;SDS011;28727;50.068;14.452;2022-07-23T14:21:52;462.30;;;411.57;;
43114;SDS011;28727;50.068;14.452;2022-07-23T14:24:23;453.13;;;401.03;;
43114;SDS011;28727;50.068;14.452;2022-07-23T14:27:07;454.65;;;404.40;;
43114;SDS011;28727;50.068;14.452;2022-07-23T14:29:39;455.17;;;404.67;;
43114;SDS011;28727;50.068;14.452;2022-07-23T14:32:11;448.63;;;391.57;;
43114;SDS011;28727;50.068;14.452;2022-07-23T14:34:45;455.57;;;405.17;;
43114;SDS011;28727;50.068;14.452;2022-07-23T14:37:20;462.20;;;411.80;;
43114;SDS011;28727;50.068;14.452;2022-07-23T14:39:52;455.27;;;404.93;;
43114;SDS011;28727;50.068;14.452;2022-07-23T14:42:26;456.37;;;403.87;;
43114;SDS011;28727;50.068;14.452;2022-07-23T14:44:58;459.03;;;408.50;;
43114;SDS011;28727;50.068;14.452;2022-07-23T14:47:39;454.03;;;403.47;;
43114;SDS011;28727;50.068;14.452;2022-07-23T14:50:12;453.70;;;401.33;;
43114;SDS011;28727;50.068;14.452;2022-07-23T14:52:52;453.57;;;401.63;;
43114;SDS011;28727;50.068;14.452;2022-07-23T14:55:25;452.27;;;395.17;;
43114;SDS011;28727;50.068;14.452;2022-07-23T14:57:58;453.42;;;399.67;;
43114;SDS011;28727;50.068;14.452;2022-07-23T15:00:31;455.88;;;404.90;;
43114;SDS011;28727;50.068;14.452;2022-07-23T15:03:16;452.03;;;398.30;;
43114;SDS011;28727;50.068;14.452;2022-07-23T15:06:13;453.50;;;397.40;;
43114;SDS011;28727;50.068;14.452;2022-07-23T15:08:46;451.67;;;396.70;;
43114;SDS011;28727;50.068;14.452;2022-07-23T15:11:18;453.77;;;401.67;;
43114;SDS011;28727;50.068;14.452;2022-07-23T15:13:58;453.53;;;393.73;;
43114;SDS011;28727;50.068;14.452;2022-07-23T15:16:29;452.67;;;400.20;;
43114;SDS011;28727;50.068;14.452;2022-07-23T15:19:05;452.02;;;400.63;;
43114;SDS011;28727;50.068;14.452;2022-07-23T15:21:38;457.27;;;406.90;;
43114;SDS011;28727;50.068;14.452;2022-07-23T15:24:19;453.57;;;397.97;;
43114;SDS011;28727;50.068;14.452;2022-07-23T15:26:51;449.97;;;390.10;;
43114;SDS011;28727;50.068;14.452;2022-07-23T15:29:22;451.37;;;395.90;;